Volcan De Teneguia — ECLA — position and weather

sailwx.info

Track history (hours):
 
Tides and Currents Weather Stations Pressure Air Temp Water Temp Dewpoint Dewpoint Depression Visibility Wind Speed Wind Dir Waves Ship Positions

Volcan De Teneguia

Last reported at 2017-Dec-16 03:37 UTC. Time now 2017-Dec-16 17:09 UTC.
Position N 29°03' W 015°29'.

Length 145 m; draft 5.4 m.

Type: Cargo ship. MMSI: 225317000.

Date/timePositionNaut miles runAvg speedWind from/ knotsBaromVisibWave heightAir tempDewpointWater temp
2017-Dec-16 03:37N 29°03' W 015°29'214.4
2017-Dec-16 03:27N 29°01' W 015°31'714.3
2017-Dec-16 02:59N 28°56' W 015°36'714.4
2017-Dec-16 02:30N 28°51' W 015°42'814.7
2017-Dec-16 01:59N 28°46' W 015°48'714.6
2017-Dec-16 01:30N 28°41' W 015°54'714.5
2017-Dec-16 01:00N 28°36' W 015°60'714.2
2017-Dec-16 00:31N 28°31' W 016°06'714.5
2017-Dec-16 00:00N 28°28' W 016°13'1 1.9
2017-Dec-15 23:30N 28°29' W 016°14'0 0.0
2017-Dec-15 23:00N 28°29' W 016°14'0 0.0
2017-Dec-15 22:31N 28°29' W 016°14'0 0.0
2017-Dec-15 22:00N 28°29' W 016°14'0 0.0
2017-Dec-15 21:30N 28°29' W 016°14'0 0.0
2017-Dec-15 21:00N 28°29' W 016°14'0 0.0
2017-Dec-15 20:30N 28°29' W 016°14'0 0.0
2017-Dec-15 20:00N 28°29' W 016°14'0 0.2
2017-Dec-15 19:30N 28°29' W 016°14'2 3.2
2017-Dec-15 19:00N 28°28' W 016°13'4 8.3
2017-Dec-15 18:31N 28°26' W 016°08'714.9
2017-Dec-15 18:00N 28°24' W 016°00'714.6
2017-Dec-15 17:31N 28°22' W 015°52'714.4
2017-Dec-15 17:00N 28°19' W 015°45'714.8
2017-Dec-15 16:31N 28°16' W 015°37'815.0
2017-Dec-15 16:01N 28°14' W 015°29'713.4
2017-Dec-15 15:31N 28°10' W 015°23'2 3.3
2017-Dec-15 14:54N 28°09' W 015°25'0 0.0
2017-Dec-15 14:24N 28°09' W 015°25'0 0.0
2017-Dec-15 13:57N 28°09' W 015°25'0 0.0
2017-Dec-15 13:27N 28°09' W 015°25'0 0.0
2017-Dec-15 12:57N 28°09' W 015°25'0 0.0
2017-Dec-15 12:27N 28°09' W 015°25'0 0.0
2017-Dec-15 11:57N 28°09' W 015°25'0 0.0
2017-Dec-15 11:27N 28°09' W 015°25'0 0.0
2017-Dec-15 11:00N 28°09' W 015°25'0 0.0
2017-Dec-15 10:30N 28°09' W 015°25'0 0.0
2017-Dec-15 10:00N 28°09' W 015°25'0 0.0
2017-Dec-15 09:30N 28°09' W 015°25'0 0.0
2017-Dec-15 09:00N 28°09' W 015°25'0 0.0
2017-Dec-15 08:30N 28°09' W 015°25'0 0.0
2017-Dec-15 08:00N 28°09' W 015°25'0 0.0
2017-Dec-15 07:30N 28°09' W 015°25'0 0.4
2017-Dec-15 07:00N 28°09' W 015°25'2 4.5
2017-Dec-15 06:31N 28°07' W 015°23'815.3
2017-Dec-15 06:00N 28°14' W 015°18'714.8
2017-Dec-15 05:30N 28°20' W 015°13'612.0
2017-Dec-15 05:00N 28°19' W 015°20'613.0
2017-Dec-15 04:30N 28°18' W 015°27'713.1
2017-Dec-15 04:00N 28°14' W 015°34'1811.7
2017-Dec-15 02:31N 28°16' W 015°53'2013.3
2017-Dec-15 01:00N 28°28' W 016°12'2 3.8
2017-Dec-15 00:28N 28°29' W 016°14'0 0.0
2017-Dec-14 18:28N 28°29' W 016°14'0 0.9
2017-Dec-14 18:00N 28°29' W 016°14'510.3
2017-Dec-14 17:30N 28°30' W 016°08'714.4
2017-Dec-14 17:00N 28°34' W 016°02'814.4
2017-Dec-14 16:26N 28°40' W 015°55'614.0
2017-Dec-14 16:00N 28°44' W 015°50'1414.2
2017-Dec-14 15:00N 28°54' W 015°39'  
2017-Dec-09 03:59N 29°03' W 015°28'914.6
2017-Dec-09 03:22N 28°57' W 015°35'514.3
2017-Dec-09 03:00N 28°53' W 015°40'714.4
2017-Dec-09 02:30N 28°48' W 015°46'714.3
2017-Dec-09 02:00N 28°43' W 015°52'714.3
2017-Dec-09 01:30N 28°38' W 015°57'714.5
2017-Dec-09 01:01N 28°33' W 016°03'714.1
2017-Dec-09 00:31N 28°29' W 016°10'3 6.9
2017-Dec-09 00:00N 28°29' W 016°14'0 0.0
2017-Dec-08 23:30N 28°29' W 016°14'0 0.0
2017-Dec-08 23:00N 28°29' W 016°14'0 0.0
2017-Dec-08 22:30N 28°29' W 016°14'0 0.0
2017-Dec-08 22:00N 28°29' W 016°14'0 0.0
2017-Dec-08 21:30N 28°29' W 016°14'0 0.0
2017-Dec-08 21:00N 28°29' W 016°14'0 0.0
2017-Dec-08 20:30N 28°29' W 016°14'0 0.0
2017-Dec-08 20:00N 28°29' W 016°14'0 0.0
2017-Dec-08 19:30N 28°29' W 016°14'0 0.0
2017-Dec-08 19:00N 28°29' W 016°14'0 0.0
2017-Dec-08 18:30N 28°29' W 016°14'1 2.0
2017-Dec-08 18:00N 28°28' W 016°13'713.7
2017-Dec-08 17:30N 28°26' W 016°06'815.8
2017-Dec-08 17:00N 28°23' W 015°57'816.0
2017-Dec-08 16:30N 28°20' W 015°49'816.2
2017-Dec-08 16:00N 28°18' W 015°40'815.9
2017-Dec-08 15:30N 28°15' W 015°32'815.6
2017-Dec-08 15:00N 28°12' W 015°23'5 9.4
2017-Dec-08 14:30N 28°08' W 015°25'1 2.3
2017-Dec-08 13:54N 28°09' W 015°25'0 0.3
2017-Dec-08 13:23N 28°09' W 015°25'0 0.0
2017-Dec-08 12:53N 28°09' W 015°25'0 0.0
2017-Dec-08 12:26N 28°09' W 015°25'0 0.0
2017-Dec-08 11:56N 28°09' W 015°25'0 0.0
2017-Dec-08 11:26N 28°09' W 015°25'0 0.0
2017-Dec-08 10:56N 28°09' W 015°25'0 0.0
2017-Dec-08 10:26N 28°09' W 015°25'0 0.0
2017-Dec-08 09:59N 28°09' W 015°25'0 0.0
2017-Dec-08 09:29N 28°09' W 015°25'0 0.0
2017-Dec-08 08:59N 28°09' W 015°25'0 0.0
2017-Dec-08 08:29N 28°09' W 015°25'0 0.0
2017-Dec-08 07:59N 28°09' W 015°25'0 0.0
2017-Dec-08 07:29N 28°09' W 015°25'0 0.0
2017-Dec-08 06:59N 28°09' W 015°25'0 0.0
2017-Dec-08 06:29N 28°09' W 015°25'0 0.0
2017-Dec-08 05:59N 28°09' W 015°25'0 0.0
2017-Dec-08 05:29N 28°09' W 015°25'0 0.0
2017-Dec-08 04:59N 28°09' W 015°25'0 0.0
2017-Dec-08 04:29N 28°09' W 015°25'0 0.0
2017-Dec-08 03:59N 28°09' W 015°25'0 0.0
2017-Dec-08 03:29N 28°09' W 015°25'0 0.0
2017-Dec-08 02:50N 28°09' W 015°25'0 0.0
2017-Dec-08 02:30N 28°09' W 015°25'0 0.3
2017-Dec-08 02:00N 28°09' W 015°25'2 4.8
2017-Dec-08 01:30N 28°07' W 015°23'510.2
2017-Dec-08 01:01N 28°12' W 015°23'815.0
2017-Dec-08 00:31N 28°15' W 015°31'714.7
2017-Dec-08 00:01N 28°17' W 015°38'714.5
2017-Dec-07 23:30N 28°20' W 015°46'714.3
2017-Dec-07 23:00N 28°22' W 015°54'714.3
2017-Dec-07 22:30N 28°24' W 016°02'714.1
2017-Dec-07 22:01N 28°26' W 016°09'5 9.2
2017-Dec-07 21:29N 28°29' W 016°14'0 0.0
2017-Dec-07 20:59N 28°29' W 016°14'0 0.0
2017-Dec-07 20:29N 28°29' W 016°14'0 0.0
2017-Dec-07 19:59N 28°29' W 016°14'0 0.0
2017-Dec-07 19:29N 28°29' W 016°14'0 0.0
2017-Dec-07 18:59N 28°29' W 016°14'0 0.0
2017-Dec-07 18:29N 28°29' W 016°14'0 0.0
2017-Dec-07 17:59N 28°29' W 016°14'0 0.0
2017-Dec-07 17:29N 28°29' W 016°14'0 0.0
2017-Dec-07 16:59N 28°29' W 016°14'0 0.0
2017-Dec-07 16:29N 28°29' W 016°14'0 0.0
2017-Dec-07 15:59N 28°29' W 016°14'0 0.0
2017-Dec-07 15:29N 28°29' W 016°14'1 1.0
2017-Dec-07 14:03N 28°28' W 016°13'1 8.0
2017-Dec-07 13:59N 28°28' W 016°13'3115.2
2017-Dec-07 11:57N 28°48' W 015°46'715.2
2017-Dec-07 11:30N 28°53' W 015°40'  
Track history (hours):
 
Tides and Currents Weather Stations Pressure Air Temp Water Temp Dewpoint Dewpoint Depression Visibility Wind Speed Wind Dir Waves Ship Positions

Volcan De Teneguia

Last reported at 2017-Dec-16 03:37 UTC. Time now 2017-Dec-16 17:09 UTC.
Position N 29°03' W 015°29'.

Length 145 m; draft 5.4 m.

Type: Cargo ship. MMSI: 225317000.

Date/timePositionNaut miles runAvg speedWind from/ knotsBaromVisibWave heightAir tempDewpointWater temp
2017-Dec-16 03:37N 29°03' W 015°29'214.4
2017-Dec-16 03:27N 29°01' W 015°31'714.3
2017-Dec-16 02:59N 28°56' W 015°36'714.4
2017-Dec-16 02:30N 28°51' W 015°42'814.7
2017-Dec-16 01:59N 28°46' W 015°48'714.6
2017-Dec-16 01:30N 28°41' W 015°54'714.5
2017-Dec-16 01:00N 28°36' W 015°60'714.2
2017-Dec-16 00:31N 28°31' W 016°06'714.5
2017-Dec-16 00:00N 28°28' W 016°13'1 1.9
2017-Dec-15 23:30N 28°29' W 016°14'0 0.0
2017-Dec-15 23:00N 28°29' W 016°14'0 0.0
2017-Dec-15 22:31N 28°29' W 016°14'0 0.0
2017-Dec-15 22:00N 28°29' W 016°14'0 0.0
2017-Dec-15 21:30N 28°29' W 016°14'0 0.0
2017-Dec-15 21:00N 28°29' W 016°14'0 0.0
2017-Dec-15 20:30N 28°29' W 016°14'0 0.0
2017-Dec-15 20:00N 28°29' W 016°14'0 0.2
2017-Dec-15 19:30N 28°29' W 016°14'2 3.2
2017-Dec-15 19:00N 28°28' W 016°13'4 8.3
2017-Dec-15 18:31N 28°26' W 016°08'714.9
2017-Dec-15 18:00N 28°24' W 016°00'714.6
2017-Dec-15 17:31N 28°22' W 015°52'714.4
2017-Dec-15 17:00N 28°19' W 015°45'714.8
2017-Dec-15 16:31N 28°16' W 015°37'815.0
2017-Dec-15 16:01N 28°14' W 015°29'713.4
2017-Dec-15 15:31N 28°10' W 015°23'2 3.3
2017-Dec-15 14:54N 28°09' W 015°25'0 0.0
2017-Dec-15 14:24N 28°09' W 015°25'0 0.0
2017-Dec-15 13:57N 28°09' W 015°25'0 0.0
2017-Dec-15 13:27N 28°09' W 015°25'0 0.0
2017-Dec-15 12:57N 28°09' W 015°25'0 0.0
2017-Dec-15 12:27N 28°09' W 015°25'0 0.0
2017-Dec-15 11:57N 28°09' W 015°25'0 0.0
2017-Dec-15 11:27N 28°09' W 015°25'0 0.0
2017-Dec-15 11:00N 28°09' W 015°25'0 0.0
2017-Dec-15 10:30N 28°09' W 015°25'0 0.0
2017-Dec-15 10:00N 28°09' W 015°25'0 0.0
2017-Dec-15 09:30N 28°09' W 015°25'0 0.0
2017-Dec-15 09:00N 28°09' W 015°25'0 0.0
2017-Dec-15 08:30N 28°09' W 015°25'0 0.0
2017-Dec-15 08:00N 28°09' W 015°25'0 0.0
2017-Dec-15 07:30N 28°09' W 015°25'0 0.4
2017-Dec-15 07:00N 28°09' W 015°25'2 4.5
2017-Dec-15 06:31N 28°07' W 015°23'815.3
2017-Dec-15 06:00N 28°14' W 015°18'714.8
2017-Dec-15 05:30N 28°20' W 015°13'612.0
2017-Dec-15 05:00N 28°19' W 015°20'613.0
2017-Dec-15 04:30N 28°18' W 015°27'713.1
2017-Dec-15 04:00N 28°14' W 015°34'1811.7
2017-Dec-15 02:31N 28°16' W 015°53'2013.3
2017-Dec-15 01:00N 28°28' W 016°12'2 3.8
2017-Dec-15 00:28N 28°29' W 016°14'0 0.0
2017-Dec-14 18:28N 28°29' W 016°14'0 0.9
2017-Dec-14 18:00N 28°29' W 016°14'510.3
2017-Dec-14 17:30N 28°30' W 016°08'714.4
2017-Dec-14 17:00N 28°34' W 016°02'814.4
2017-Dec-14 16:26N 28°40' W 015°55'614.0
2017-Dec-14 16:00N 28°44' W 015°50'1414.2
2017-Dec-14 15:00N 28°54' W 015°39'  
2017-Dec-09 03:59N 29°03' W 015°28'914.6
2017-Dec-09 03:22N 28°57' W 015°35'514.3
2017-Dec-09 03:00N 28°53' W 015°40'714.4
2017-Dec-09 02:30N 28°48' W 015°46'714.3
2017-Dec-09 02:00N 28°43' W 015°52'714.3
2017-Dec-09 01:30N 28°38' W 015°57'714.5
2017-Dec-09 01:01N 28°33' W 016°03'714.1
2017-Dec-09 00:31N 28°29' W 016°10'3 6.9
2017-Dec-09 00:00N 28°29' W 016°14'0 0.0
2017-Dec-08 23:30N 28°29' W 016°14'0 0.0
2017-Dec-08 23:00N 28°29' W 016°14'0 0.0
2017-Dec-08 22:30N 28°29' W 016°14'0 0.0
2017-Dec-08 22:00N 28°29' W 016°14'0 0.0
2017-Dec-08 21:30N 28°29' W 016°14'0 0.0
2017-Dec-08 21:00N 28°29' W 016°14'0 0.0
2017-Dec-08 20:30N 28°29' W 016°14'0 0.0
2017-Dec-08 20:00N 28°29' W 016°14'0 0.0
2017-Dec-08 19:30N 28°29' W 016°14'0 0.0
2017-Dec-08 19:00N 28°29' W 016°14'0 0.0
2017-Dec-08 18:30N 28°29' W 016°14'1 2.0
2017-Dec-08 18:00N 28°28' W 016°13'713.7
2017-Dec-08 17:30N 28°26' W 016°06'815.8
2017-Dec-08 17:00N 28°23' W 015°57'816.0
2017-Dec-08 16:30N 28°20' W 015°49'816.2
2017-Dec-08 16:00N 28°18' W 015°40'815.9
2017-Dec-08 15:30N 28°15' W 015°32'815.6
2017-Dec-08 15:00N 28°12' W 015°23'5 9.4
2017-Dec-08 14:30N 28°08' W 015°25'1 2.3
2017-Dec-08 13:54N 28°09' W 015°25'0 0.3
2017-Dec-08 13:23N 28°09' W 015°25'0 0.0
2017-Dec-08 12:53N 28°09' W 015°25'0 0.0
2017-Dec-08 12:26N 28°09' W 015°25'0 0.0
2017-Dec-08 11:56N 28°09' W 015°25'0 0.0
2017-Dec-08 11:26N 28°09' W 015°25'0 0.0
2017-Dec-08 10:56N 28°09' W 015°25'0 0.0
2017-Dec-08 10:26N 28°09' W 015°25'0 0.0
2017-Dec-08 09:59N 28°09' W 015°25'0 0.0
2017-Dec-08 09:29N 28°09' W 015°25'0 0.0
2017-Dec-08 08:59N 28°09' W 015°25'0 0.0
2017-Dec-08 08:29N 28°09' W 015°25'0 0.0
2017-Dec-08 07:59N 28°09' W 015°25'0 0.0
2017-Dec-08 07:29N 28°09' W 015°25'0 0.0
2017-Dec-08 06:59N 28°09' W 015°25'0 0.0
2017-Dec-08 06:29N 28°09' W 015°25'0 0.0
2017-Dec-08 05:59N 28°09' W 015°25'0 0.0
2017-Dec-08 05:29N 28°09' W 015°25'0 0.0
2017-Dec-08 04:59N 28°09' W 015°25'0 0.0
2017-Dec-08 04:29N 28°09' W 015°25'0 0.0
2017-Dec-08 03:59N 28°09' W 015°25'0 0.0
2017-Dec-08 03:29N 28°09' W 015°25'0 0.0
2017-Dec-08 02:50N 28°09' W 015°25'0 0.0
2017-Dec-08 02:30N 28°09' W 015°25'0 0.3
2017-Dec-08 02:00N 28°09' W 015°25'2 4.8
2017-Dec-08 01:30N 28°07' W 015°23'510.2
2017-Dec-08 01:01N 28°12' W 015°23'815.0
2017-Dec-08 00:31N 28°15' W 015°31'714.7
2017-Dec-08 00:01N 28°17' W 015°38'714.5
2017-Dec-07 23:30N 28°20' W 015°46'714.3
2017-Dec-07 23:00N 28°22' W 015°54'714.3
2017-Dec-07 22:30N 28°24' W 016°02'714.1
2017-Dec-07 22:01N 28°26' W 016°09'5 9.2
2017-Dec-07 21:29N 28°29' W 016°14'0 0.0
2017-Dec-07 20:59N 28°29' W 016°14'0 0.0
2017-Dec-07 20:29N 28°29' W 016°14'0 0.0
2017-Dec-07 19:59N 28°29' W 016°14'0 0.0
2017-Dec-07 19:29N 28°29' W 016°14'0 0.0
2017-Dec-07 18:59N 28°29' W 016°14'0 0.0
2017-Dec-07 18:29N 28°29' W 016°14'0 0.0
2017-Dec-07 17:59N 28°29' W 016°14'0 0.0
2017-Dec-07 17:29N 28°29' W 016°14'0 0.0
2017-Dec-07 16:59N 28°29' W 016°14'0 0.0
2017-Dec-07 16:29N 28°29' W 016°14'0 0.0
2017-Dec-07 15:59N 28°29' W 016°14'0 0.0
2017-Dec-07 15:29N 28°29' W 016°14'1 1.0
2017-Dec-07 14:03N 28°28' W 016°13'1 8.0
2017-Dec-07 13:59N 28°28' W 016°13'3115.2
2017-Dec-07 11:57N 28°48' W 015°46'715.2
2017-Dec-07 11:30N 28°53' W 015°40'  

Dump ship's entire track history